sensor_id;sensor_type;location;lat;lon;timestamp;P1;durP1;ratioP1;P2;durP2;ratioP2
69985;SDS011;57328;52.054;5.294;2023-05-02T00:01:44;28.40;;;12.20;;
69985;SDS011;57328;52.054;5.294;2023-05-02T00:04:11;21.50;;;9.82;;
69985;SDS011;57328;52.054;5.294;2023-05-02T00:06:38;27.15;;;11.70;;
69985;SDS011;57328;52.054;5.294;2023-05-02T00:09:08;25.13;;;10.75;;
69985;SDS011;57328;52.054;5.294;2023-05-02T00:11:35;29.05;;;11.95;;
69985;SDS011;57328;52.054;5.294;2023-05-02T00:14:02;26.50;;;11.73;;
69985;SDS011;57328;52.054;5.294;2023-05-02T00:16:29;26.67;;;11.68;;
69985;SDS011;57328;52.054;5.294;2023-05-02T00:18:56;22.92;;;10.32;;
69985;SDS011;57328;52.054;5.294;2023-05-02T00:21:23;25.25;;;11.00;;
69985;SDS011;57328;52.054;5.294;2023-05-02T00:23:54;24.33;;;10.63;;
69985;SDS011;57328;52.054;5.294;2023-05-02T00:26:25;27.38;;;10.15;;
69985;SDS011;57328;52.054;5.294;2023-05-02T00:28:52;24.38;;;8.25;;
69985;SDS011;57328;52.054;5.294;2023-05-02T00:31:19;25.85;;;10.70;;
69985;SDS011;57328;52.054;5.294;2023-05-02T00:33:47;20.38;;;8.02;;
69985;SDS011;57328;52.054;5.294;2023-05-02T00:38:41;24.60;;;9.52;;
69985;SDS011;57328;52.054;5.294;2023-05-02T00:41:08;28.77;;;11.60;;
69985;SDS011;57328;52.054;5.294;2023-05-02T00:43:36;24.67;;;10.73;;
69985;SDS011;57328;52.054;5.294;2023-05-02T00:48:32;23.77;;;10.20;;
69985;SDS011;57328;52.054;5.294;2023-05-02T00:51:04;24.40;;;9.98;;
69985;SDS011;57328;52.054;5.294;2023-05-02T00:53:34;25.75;;;10.07;;
69985;SDS011;57328;52.054;5.294;2023-05-02T00:56:01;21.85;;;9.68;;
69985;SDS011;57328;52.054;5.294;2023-05-02T00:58:28;19.55;;;9.30;;
69985;SDS011;57328;52.054;5.294;2023-05-02T01:08:33;14.93;;;6.50;;
69985;SDS011;57328;52.054;5.294;2023-05-02T01:11:10;19.33;;;7.00;;
69985;SDS011;57328;52.054;5.294;2023-05-02T01:13:40;13.55;;;5.55;;
69985;SDS011;57328;52.054;5.294;2023-05-02T01:16:09;15.15;;;6.68;;
69985;SDS011;57328;52.054;5.294;2023-05-02T01:18:37;18.80;;;6.90;;
69985;SDS011;57328;52.054;5.294;2023-05-02T01:21:07;14.38;;;6.30;;
69985;SDS011;57328;52.054;5.294;2023-05-02T01:28:54;13.15;;;5.18;;
69985;SDS011;57328;52.054;5.294;2023-05-02T01:31:22;17.02;;;6.03;;
69985;SDS011;57328;52.054;5.294;2023-05-02T01:33:53;12.25;;;2.92;;
69985;SDS011;57328;52.054;5.294;2023-05-02T01:36:20;9.80;;;3.50;;
69985;SDS011;57328;52.054;5.294;2023-05-02T01:38:48;12.43;;;4.40;;
69985;SDS011;57328;52.054;5.294;2023-05-02T01:41:16;12.27;;;4.03;;
69985;SDS011;57328;52.054;5.294;2023-05-02T01:43:44;9.43;;;3.13;;
69985;SDS011;57328;52.054;5.294;2023-05-02T01:46:11;11.32;;;2.75;;
69985;SDS011;57328;52.054;5.294;2023-05-02T01:48:41;6.45;;;2.33;;
69985;SDS011;57328;52.054;5.294;2023-05-02T01:51:10;9.18;;;3.05;;
69985;SDS011;57328;52.054;5.294;2023-05-02T01:53:38;9.05;;;2.90;;
69985;SDS011;57328;52.054;5.294;2023-05-02T01:56:05;11.27;;;3.22;;
69985;SDS011;57328;52.054;5.294;2023-05-02T01:58:33;6.70;;;1.50;;
69985;SDS011;57328;52.054;5.294;2023-05-02T02:01:01;13.27;;;2.90;;
69985;SDS011;57328;52.054;5.294;2023-05-02T02:03:31;4.13;;;1.58;;
69985;SDS011;57328;52.054;5.294;2023-05-02T02:05:58;8.02;;;3.10;;
69985;SDS011;57328;52.054;5.294;2023-05-02T02:08:27;12.02;;;2.50;;
69985;SDS011;57328;52.054;5.294;2023-05-02T02:10:56;8.18;;;2.05;;
69985;SDS011;57328;52.054;5.294;2023-05-02T02:13:26;13.02;;;2.80;;
69985;SDS011;57328;52.054;5.294;2023-05-02T02:15:56;10.65;;;2.90;;
69985;SDS011;57328;52.054;5.294;2023-05-02T02:18:26;7.93;;;2.47;;
69985;SDS011;57328;52.054;5.294;2023-05-02T02:20:54;8.32;;;3.05;;
69985;SDS011;57328;52.054;5.294;2023-05-02T02:23:22;7.13;;;2.40;;
69985;SDS011;57328;52.054;5.294;2023-05-02T02:25:52;10.38;;;2.80;;
69985;SDS011;57328;52.054;5.294;2023-05-02T02:28:20;8.57;;;2.30;;
69985;SDS011;57328;52.054;5.294;2023-05-02T02:30:47;7.07;;;2.50;;
69985;SDS011;57328;52.054;5.294;2023-05-02T02:33:14;7.53;;;2.28;;
69985;SDS011;57328;52.054;5.294;2023-05-02T02:35:43;8.00;;;2.00;;
69985;SDS011;57328;52.054;5.294;2023-05-02T02:38:19;7.47;;;2.30;;
69985;SDS011;57328;52.054;5.294;2023-05-02T02:40:54;9.18;;;1.80;;
69985;SDS011;57328;52.054;5.294;2023-05-02T02:43:26;7.32;;;1.65;;
69985;SDS011;57328;52.054;5.294;2023-05-02T02:48:35;5.32;;;1.20;;
69985;SDS011;57328;52.054;5.294;2023-05-02T02:51:13;6.72;;;1.52;;
69985;SDS011;57328;52.054;5.294;2023-05-02T02:56:13;2.20;;;0.90;;
69985;SDS011;57328;52.054;5.294;2023-05-02T03:01:20;4.82;;;0.98;;
69985;SDS011;57328;52.054;5.294;2023-05-02T03:03:48;3.35;;;1.30;;
69985;SDS011;57328;52.054;5.294;2023-05-02T03:06:17;6.65;;;1.45;;
69985;SDS011;57328;52.054;5.294;2023-05-02T03:08:44;5.13;;;1.50;;
69985;SDS011;57328;52.054;5.294;2023-05-02T03:11:12;2.97;;;1.00;;
69985;SDS011;57328;52.054;5.294;2023-05-02T03:13:39;7.05;;;1.50;;
69985;SDS011;57328;52.054;5.294;2023-05-02T03:18:52;7.18;;;1.10;;
69985;SDS011;57328;52.054;5.294;2023-05-02T03:21:19;6.13;;;1.20;;
69985;SDS011;57328;52.054;5.294;2023-05-02T03:23:46;6.53;;;1.20;;
69985;SDS011;57328;52.054;5.294;2023-05-02T03:29:42;6.40;;;1.30;;
69985;SDS011;57328;52.054;5.294;2023-05-02T03:32:10;4.28;;;1.27;;
69985;SDS011;57328;52.054;5.294;2023-05-02T03:34:37;3.65;;;1.38;;
69985;SDS011;57328;52.054;5.294;2023-05-02T03:37:04;8.18;;;1.40;;
69985;SDS011;57328;52.054;5.294;2023-05-02T03:39:31;4.63;;;1.40;;
69985;SDS011;57328;52.054;5.294;2023-05-02T03:41:58;6.57;;;1.10;;
69985;SDS011;57328;52.054;5.294;2023-05-02T03:44:26;11.70;;;1.35;;
69985;SDS011;57328;52.054;5.294;2023-05-02T03:46:54;6.30;;;1.67;;
69985;SDS011;57328;52.054;5.294;2023-05-02T03:49:21;6.43;;;1.20;;
69985;SDS011;57328;52.054;5.294;2023-05-02T03:51:48;5.28;;;1.25;;
69985;SDS011;57328;52.054;5.294;2023-05-02T03:54:15;3.58;;;1.05;;
69985;SDS011;57328;52.054;5.294;2023-05-02T03:56:43;5.95;;;1.38;;
69985;SDS011;57328;52.054;5.294;2023-05-02T03:59:10;3.58;;;1.17;;
69985;SDS011;57328;52.054;5.294;2023-05-02T04:01:37;4.50;;;0.90;;
69985;SDS011;57328;52.054;5.294;2023-05-02T04:04:04;6.78;;;1.20;;
69985;SDS011;57328;52.054;5.294;2023-05-02T04:06:32;2.85;;;1.10;;
69985;SDS011;57328;52.054;5.294;2023-05-02T04:08:59;5.28;;;1.45;;
69985;SDS011;57328;52.054;5.294;2023-05-02T04:11:26;8.38;;;1.10;;
69985;SDS011;57328;52.054;5.294;2023-05-02T04:13:54;4.93;;;1.25;;
69985;SDS011;57328;52.054;5.294;2023-05-02T04:16:21;5.80;;;1.63;;
69985;SDS011;57328;52.054;5.294;2023-05-02T04:18:48;4.63;;;1.20;;
69985;SDS011;57328;52.054;5.294;2023-05-02T04:21:15;4.25;;;1.27;;
69985;SDS011;57328;52.054;5.294;2023-05-02T04:23:43;8.65;;;1.45;;
69985;SDS011;57328;52.054;5.294;2023-05-02T04:26:10;8.43;;;1.70;;
69985;SDS011;57328;52.054;5.294;2023-05-02T04:28:37;4.70;;;1.33;;
69985;SDS011;57328;52.054;5.294;2023-05-02T04:31:04;5.18;;;1.30;;
69985;SDS011;57328;52.054;5.294;2023-05-02T04:33:32;5.75;;;1.50;;
69985;SDS011;57328;52.054;5.294;2023-05-02T04:35:59;7.18;;;1.30;;
69985;SDS011;57328;52.054;5.294;2023-05-02T04:38:26;8.23;;;1.40;;
69985;SDS011;57328;52.054;5.294;2023-05-02T04:40:53;5.95;;;1.55;;
69985;SDS011;57328;52.054;5.294;2023-05-02T04:43:21;10.00;;;1.73;;
69985;SDS011;57328;52.054;5.294;2023-05-02T04:50:44;4.00;;;1.35;;
69985;SDS011;57328;52.054;5.294;2023-05-02T04:53:12;2.42;;;0.82;;
69985;SDS011;57328;52.054;5.294;2023-05-02T04:55:39;9.13;;;2.63;;
69985;SDS011;57328;52.054;5.294;2023-05-02T04:58:08;7.18;;;1.42;;
69985;SDS011;57328;52.054;5.294;2023-05-02T05:00:35;4.40;;;1.45;;
69985;SDS011;57328;52.054;5.294;2023-05-02T05:03:02;8.30;;;1.90;;
69985;SDS011;57328;52.054;5.294;2023-05-02T05:05:32;5.30;;;1.52;;
69985;SDS011;57328;52.054;5.294;2023-05-02T05:07:59;7.80;;;1.38;;
69985;SDS011;57328;52.054;5.294;2023-05-02T05:10:26;5.45;;;1.27;;
69985;SDS011;57328;52.054;5.294;2023-05-02T05:12:53;15.93;;;2.03;;
69985;SDS011;57328;52.054;5.294;2023-05-02T05:15:21;4.60;;;1.65;;
69985;SDS011;57328;52.054;5.294;2023-05-02T05:17:50;8.50;;;1.67;;
69985;SDS011;57328;52.054;5.294;2023-05-02T05:20:17;7.53;;;2.15;;
69985;SDS011;57328;52.054;5.294;2023-05-02T05:22:45;10.32;;;2.25;;
69985;SDS011;57328;52.054;5.294;2023-05-02T05:25:12;4.22;;;1.23;;
69985;SDS011;57328;52.054;5.294;2023-05-02T05:27:40;8.57;;;1.50;;
69985;SDS011;57328;52.054;5.294;2023-05-02T05:30:07;10.75;;;2.15;;
69985;SDS011;57328;52.054;5.294;2023-05-02T05:32:34;11.18;;;2.75;;
69985;SDS011;57328;52.054;5.294;2023-05-02T05:35:01;7.97;;;1.73;;
69985;SDS011;57328;52.054;5.294;2023-05-02T05:37:29;9.43;;;2.10;;
69985;SDS011;57328;52.054;5.294;2023-05-02T05:39:56;8.15;;;1.88;;
69985;SDS011;57328;52.054;5.294;2023-05-02T05:42:24;8.65;;;1.95;;
69985;SDS011;57328;52.054;5.294;2023-05-02T05:44:52;13.00;;;2.20;;
69985;SDS011;57328;52.054;5.294;2023-05-02T05:47:19;11.27;;;1.95;;
69985;SDS011;57328;52.054;5.294;2023-05-02T05:49:53;10.68;;;2.17;;
69985;SDS011;57328;52.054;5.294;2023-05-02T05:52:20;2.40;;;1.05;;
69985;SDS011;57328;52.054;5.294;2023-05-02T05:54:48;15.95;;;2.70;;
69985;SDS011;57328;52.054;5.294;2023-05-02T05:57:15;7.18;;;2.53;;
69985;SDS011;57328;52.054;5.294;2023-05-02T05:59:42;4.72;;;1.80;;
69985;SDS011;57328;52.054;5.294;2023-05-02T06:02:09;11.73;;;1.63;;
69985;SDS011;57328;52.054;5.294;2023-05-02T06:04:36;3.00;;;1.30;;
69985;SDS011;57328;52.054;5.294;2023-05-02T06:07:03;4.72;;;1.52;;
69985;SDS011;57328;52.054;5.294;2023-05-02T06:09:31;9.90;;;2.20;;
69985;SDS011;57328;52.054;5.294;2023-05-02T06:11:59;7.07;;;1.90;;
69985;SDS011;57328;52.054;5.294;2023-05-02T06:14:27;11.95;;;2.15;;
69985;SDS011;57328;52.054;5.294;2023-05-02T06:16:54;8.38;;;1.85;;
69985;SDS011;57328;52.054;5.294;2023-05-02T06:19:24;8.20;;;1.80;;
69985;SDS011;57328;52.054;5.294;2023-05-02T06:21:52;6.15;;;1.50;;
69985;SDS011;57328;52.054;5.294;2023-05-02T06:24:19;8.90;;;1.85;;
69985;SDS011;57328;52.054;5.294;2023-05-02T06:26:46;4.22;;;1.38;;
69985;SDS011;57328;52.054;5.294;2023-05-02T06:29:13;7.45;;;1.70;;
69985;SDS011;57328;52.054;5.294;2023-05-02T06:31:40;8.15;;;1.42;;
69985;SDS011;57328;52.054;5.294;2023-05-02T06:34:08;9.30;;;1.60;;
69985;SDS011;57328;52.054;5.294;2023-05-02T06:36:35;9.55;;;1.60;;
69985;SDS011;57328;52.054;5.294;2023-05-02T06:39:02;5.65;;;1.67;;
69985;SDS011;57328;52.054;5.294;2023-05-02T06:41:29;9.35;;;1.52;;
69985;SDS011;57328;52.054;5.294;2023-05-02T06:43:57;4.68;;;0.82;;
69985;SDS011;57328;52.054;5.294;2023-05-02T06:46:26;9.60;;;1.77;;
69985;SDS011;57328;52.054;5.294;2023-05-02T06:48:54;10.95;;;1.73;;
69985;SDS011;57328;52.054;5.294;2023-05-02T06:51:21;9.02;;;1.67;;
69985;SDS011;57328;52.054;5.294;2023-05-02T06:53:48;5.97;;;1.40;;
69985;SDS011;57328;52.054;5.294;2023-05-02T06:56:15;5.10;;;1.00;;
69985;SDS011;57328;52.054;5.294;2023-05-02T06:58:43;7.97;;;1.45;;
69985;SDS011;57328;52.054;5.294;2023-05-02T07:01:10;11.65;;;1.80;;
69985;SDS011;57328;52.054;5.294;2023-05-02T07:03:38;7.13;;;1.42;;
69985;SDS011;57328;52.054;5.294;2023-05-02T07:06:05;10.35;;;1.67;;
69985;SDS011;57328;52.054;5.294;2023-05-02T07:08:32;9.77;;;1.73;;
69985;SDS011;57328;52.054;5.294;2023-05-02T07:11:00;9.93;;;1.83;;
69985;SDS011;57328;52.054;5.294;2023-05-02T07:13:28;7.75;;;1.15;;
69985;SDS011;57328;52.054;5.294;2023-05-02T07:15:55;6.30;;;1.45;;
69985;SDS011;57328;52.054;5.294;2023-05-02T07:18:22;7.28;;;1.40;;
69985;SDS011;57328;52.054;5.294;2023-05-02T07:20:49;5.43;;;1.33;;
69985;SDS011;57328;52.054;5.294;2023-05-02T07:23:17;2.15;;;0.80;;
69985;SDS011;57328;52.054;5.294;2023-05-02T07:25:44;10.70;;;1.50;;
69985;SDS011;57328;52.054;5.294;2023-05-02T07:28:11;4.55;;;1.25;;
69985;SDS011;57328;52.054;5.294;2023-05-02T07:30:40;9.30;;;1.42;;
69985;SDS011;57328;52.054;5.294;2023-05-02T07:33:08;10.45;;;1.85;;
69985;SDS011;57328;52.054;5.294;2023-05-02T07:35:35;3.97;;;1.20;;
69985;SDS011;57328;52.054;5.294;2023-05-02T07:38:02;3.75;;;1.52;;
69985;SDS011;57328;52.054;5.294;2023-05-02T07:40:30;8.55;;;1.50;;
69985;SDS011;57328;52.054;5.294;2023-05-02T07:42:57;9.52;;;1.60;;
69985;SDS011;57328;52.054;5.294;2023-05-02T07:45:24;3.72;;;1.25;;
69985;SDS011;57328;52.054;5.294;2023-05-02T07:47:51;7.82;;;2.03;;
69985;SDS011;57328;52.054;5.294;2023-05-02T07:50:19;7.50;;;1.80;;
69985;SDS011;57328;52.054;5.294;2023-05-02T07:52:46;8.93;;;1.63;;
69985;SDS011;57328;52.054;5.294;2023-05-02T07:55:13;9.30;;;2.65;;
69985;SDS011;57328;52.054;5.294;2023-05-02T07:57:40;11.50;;;1.80;;
69985;SDS011;57328;52.054;5.294;2023-05-02T08:00:07;7.18;;;2.08;;
69985;SDS011;57328;52.054;5.294;2023-05-02T08:02:35;5.78;;;1.13;;
69985;SDS011;57328;52.054;5.294;2023-05-02T08:05:02;8.60;;;1.73;;
69985;SDS011;57328;52.054;5.294;2023-05-02T08:07:31;5.30;;;1.30;;
69985;SDS011;57328;52.054;5.294;2023-05-02T08:09:58;7.50;;;1.73;;
69985;SDS011;57328;52.054;5.294;2023-05-02T08:12:26;6.40;;;1.55;;
69985;SDS011;57328;52.054;5.294;2023-05-02T08:14:54;3.88;;;1.20;;
69985;SDS011;57328;52.054;5.294;2023-05-02T08:17:21;6.72;;;1.70;;
69985;SDS011;57328;52.054;5.294;2023-05-02T08:19:48;8.07;;;1.60;;
69985;SDS011;57328;52.054;5.294;2023-05-02T08:22:15;9.38;;;2.08;;
69985;SDS011;57328;52.054;5.294;2023-05-02T08:24:42;8.23;;;1.77;;
69985;SDS011;57328;52.054;5.294;2023-05-02T08:27:10;4.68;;;1.00;;
69985;SDS011;57328;52.054;5.294;2023-05-02T08:29:37;2.28;;;0.88;;
69985;SDS011;57328;52.054;5.294;2023-05-02T08:32:04;6.43;;;1.63;;
69985;SDS011;57328;52.054;5.294;2023-05-02T08:34:31;5.15;;;1.40;;
69985;SDS011;57328;52.054;5.294;2023-05-02T08:36:59;3.90;;;1.52;;
69985;SDS011;57328;52.054;5.294;2023-05-02T08:39:26;4.97;;;1.20;;
69985;SDS011;57328;52.054;5.294;2023-05-02T08:41:53;4.70;;;1.25;;
69985;SDS011;57328;52.054;5.294;2023-05-02T08:44:20;8.65;;;1.70;;
69985;SDS011;57328;52.054;5.294;2023-05-02T08:46:47;3.92;;;1.85;;
69985;SDS011;57328;52.054;5.294;2023-05-02T08:49:16;12.15;;;2.08;;
69985;SDS011;57328;52.054;5.294;2023-05-02T08:51:44;2.72;;;1.05;;
69985;SDS011;57328;52.054;5.294;2023-05-02T08:54:11;1.02;;;0.70;;
69985;SDS011;57328;52.054;5.294;2023-05-02T08:56:42;3.83;;;1.42;;
69985;SDS011;57328;52.054;5.294;2023-05-02T08:59:09;8.90;;;1.42;;
69985;SDS011;57328;52.054;5.294;2023-05-02T09:01:36;6.68;;;1.83;;
69985;SDS011;57328;52.054;5.294;2023-05-02T09:04:08;4.90;;;1.10;;
69985;SDS011;57328;52.054;5.294;2023-05-02T09:06:36;2.60;;;1.10;;
69985;SDS011;57328;52.054;5.294;2023-05-02T09:09:03;5.82;;;2.00;;
69985;SDS011;57328;52.054;5.294;2023-05-02T09:15:09;3.45;;;1.27;;
69985;SDS011;57328;52.054;5.294;2023-05-02T09:17:42;2.10;;;0.88;;
69985;SDS011;57328;52.054;5.294;2023-05-02T09:20:11;3.45;;;1.10;;
69985;SDS011;57328;52.054;5.294;2023-05-02T09:22:38;7.13;;;1.08;;
69985;SDS011;57328;52.054;5.294;2023-05-02T09:27:47;2.60;;;0.60;;
69985;SDS011;57328;52.054;5.294;2023-05-02T09:30:23;4.57;;;1.00;;
69985;SDS011;57328;52.054;5.294;2023-05-02T09:32:50;5.70;;;1.40;;
69985;SDS011;57328;52.054;5.294;2023-05-02T09:35:21;5.30;;;1.13;;
69985;SDS011;57328;52.054;5.294;2023-05-02T09:40:19;5.32;;;1.27;;
69985;SDS011;57328;52.054;5.294;2023-05-02T09:42:46;7.63;;;1.45;;
69985;SDS011;57328;52.054;5.294;2023-05-02T09:45:20;6.07;;;1.38;;
69985;SDS011;57328;52.054;5.294;2023-05-02T09:47:48;3.75;;;1.10;;
69985;SDS011;57328;52.054;5.294;2023-05-02T09:50:37;4.20;;;1.40;;
69985;SDS011;57328;52.054;5.294;2023-05-02T09:53:04;4.35;;;1.20;;
69985;SDS011;57328;52.054;5.294;2023-05-02T09:55:32;3.65;;;1.10;;
69985;SDS011;57328;52.054;5.294;2023-05-02T09:57:59;7.40;;;1.60;;
69985;SDS011;57328;52.054;5.294;2023-05-02T10:03:25;4.32;;;1.30;;
69985;SDS011;57328;52.054;5.294;2023-05-02T10:05:52;5.10;;;1.20;;
69985;SDS011;57328;52.054;5.294;2023-05-02T10:08:20;3.75;;;1.30;;
69985;SDS011;57328;52.054;5.294;2023-05-02T10:10:55;11.50;;;1.58;;
69985;SDS011;57328;52.054;5.294;2023-05-02T10:13:23;2.20;;;0.88;;
69985;SDS011;57328;52.054;5.294;2023-05-02T10:15:57;1.98;;;1.05;;
69985;SDS011;57328;52.054;5.294;2023-05-02T10:18:32;4.85;;;1.50;;
69985;SDS011;57328;52.054;5.294;2023-05-02T10:21:01;3.28;;;1.30;;
69985;SDS011;57328;52.054;5.294;2023-05-02T10:23:31;4.07;;;1.40;;
69985;SDS011;57328;52.054;5.294;2023-05-02T10:25:59;2.97;;;0.57;;
69985;SDS011;57328;52.054;5.294;2023-05-02T10:28:26;8.07;;;1.70;;
69985;SDS011;57328;52.054;5.294;2023-05-02T10:30:54;5.55;;;1.77;;
69985;SDS011;57328;52.054;5.294;2023-05-02T10:33:21;5.18;;;1.45;;
69985;SDS011;57328;52.054;5.294;2023-05-02T10:35:49;3.90;;;1.40;;
69985;SDS011;57328;52.054;5.294;2023-05-02T10:38:18;4.40;;;1.33;;
69985;SDS011;57328;52.054;5.294;2023-05-02T10:40:48;7.03;;;1.35;;
69985;SDS011;57328;52.054;5.294;2023-05-02T10:43:24;4.32;;;1.40;;
69985;SDS011;57328;52.054;5.294;2023-05-02T10:45:52;8.00;;;1.50;;
69985;SDS011;57328;52.054;5.294;2023-05-02T10:48:23;7.68;;;1.50;;
69985;SDS011;57328;52.054;5.294;2023-05-02T10:50:55;4.03;;;1.40;;
69985;SDS011;57328;52.054;5.294;2023-05-02T10:53:23;6.57;;;1.58;;
69985;SDS011;57328;52.054;5.294;2023-05-02T10:56:36;7.97;;;1.60;;
69985;SDS011;57328;52.054;5.294;2023-05-02T10:58:39;5.22;;;1.83;;
69985;SDS011;57328;52.054;5.294;2023-05-02T11:03:53;3.45;;;0.88;;
69985;SDS011;57328;52.054;5.294;2023-05-02T11:06:22;5.45;;;1.50;;
69985;SDS011;57328;52.054;5.294;2023-05-02T11:08:49;6.88;;;1.65;;
69985;SDS011;57328;52.054;5.294;2023-05-02T11:14:02;5.82;;;1.88;;
69985;SDS011;57328;52.054;5.294;2023-05-02T11:19:15;5.63;;;1.42;;
69985;SDS011;57328;52.054;5.294;2023-05-02T11:21:42;4.22;;;1.50;;
69985;SDS011;57328;52.054;5.294;2023-05-02T11:27:35;8.25;;;1.63;;
69985;SDS011;57328;52.054;5.294;2023-05-02T11:29:53;7.40;;;1.90;;
69985;SDS011;57328;52.054;5.294;2023-05-02T11:32:20;6.00;;;1.80;;
69985;SDS011;57328;52.054;5.294;2023-05-02T11:34:48;5.50;;;1.48;;
69985;SDS011;57328;52.054;5.294;2023-05-02T11:37:19;10.43;;;1.80;;
69985;SDS011;57328;52.054;5.294;2023-05-02T11:39:46;4.55;;;1.70;;
69985;SDS011;57328;52.054;5.294;2023-05-02T11:42:26;6.93;;;1.55;;
69985;SDS011;57328;52.054;5.294;2023-05-02T11:44:58;7.57;;;2.03;;
69985;SDS011;57328;52.054;5.294;2023-05-02T11:47:26;6.05;;;1.85;;
69985;SDS011;57328;52.054;5.294;2023-05-02T11:49:55;6.93;;;1.73;;
69985;SDS011;57328;52.054;5.294;2023-05-02T11:52:22;5.88;;;2.08;;
69985;SDS011;57328;52.054;5.294;2023-05-02T11:54:53;5.07;;;1.63;;
69985;SDS011;57328;52.054;5.294;2023-05-02T11:57:22;6.93;;;2.00;;
69985;SDS011;57328;52.054;5.294;2023-05-02T11:59:50;6.47;;;2.15;;
69985;SDS011;57328;52.054;5.294;2023-05-02T12:02:18;6.35;;;1.52;;
69985;SDS011;57328;52.054;5.294;2023-05-02T12:04:46;9.70;;;2.08;;
69985;SDS011;57328;52.054;5.294;2023-05-02T12:07:13;7.55;;;2.30;;
69985;SDS011;57328;52.054;5.294;2023-05-02T12:09:50;9.30;;;2.00;;
69985;SDS011;57328;52.054;5.294;2023-05-02T12:12:18;5.30;;;1.98;;
69985;SDS011;57328;52.054;5.294;2023-05-02T12:14:46;7.07;;;2.35;;
69985;SDS011;57328;52.054;5.294;2023-05-02T12:17:13;6.25;;;1.92;;
69985;SDS011;57328;52.054;5.294;2023-05-02T12:19:40;9.60;;;1.95;;
69985;SDS011;57328;52.054;5.294;2023-05-02T12:22:08;8.38;;;2.70;;
69985;SDS011;57328;52.054;5.294;2023-05-02T12:24:35;6.57;;;1.67;;
69985;SDS011;57328;52.054;5.294;2023-05-02T12:29:37;9.63;;;2.38;;
69985;SDS011;57328;52.054;5.294;2023-05-02T12:32:04;4.80;;;1.80;;
69985;SDS011;57328;52.054;5.294;2023-05-02T12:34:32;8.32;;;2.30;;
69985;SDS011;57328;52.054;5.294;2023-05-02T12:37:00;5.32;;;1.83;;
69985;SDS011;57328;52.054;5.294;2023-05-02T12:39:34;12.25;;;2.40;;
69985;SDS011;57328;52.054;5.294;2023-05-02T12:42:11;8.10;;;2.30;;
69985;SDS011;57328;52.054;5.294;2023-05-02T12:44:39;7.15;;;2.17;;
69985;SDS011;57328;52.054;5.294;2023-05-02T12:47:08;8.40;;;1.77;;
69985;SDS011;57328;52.054;5.294;2023-05-02T12:49:48;8.32;;;2.10;;
69985;SDS011;57328;52.054;5.294;2023-05-02T12:52:16;5.13;;;1.30;;
69985;SDS011;57328;52.054;5.294;2023-05-02T12:54:44;7.68;;;1.92;;
69985;SDS011;57328;52.054;5.294;2023-05-02T12:57:24;7.90;;;1.50;;
69985;SDS011;57328;52.054;5.294;2023-05-02T12:59:52;8.50;;;2.20;;
69985;SDS011;57328;52.054;5.294;2023-05-02T13:02:20;13.02;;;2.10;;
69985;SDS011;57328;52.054;5.294;2023-05-02T13:04:48;7.55;;;2.00;;
69985;SDS011;57328;52.054;5.294;2023-05-02T13:07:15;7.15;;;2.17;;
69985;SDS011;57328;52.054;5.294;2023-05-02T13:09:42;8.85;;;2.03;;
69985;SDS011;57328;52.054;5.294;2023-05-02T13:12:09;6.95;;;2.05;;
69985;SDS011;57328;52.054;5.294;2023-05-02T13:14:36;5.85;;;1.73;;
69985;SDS011;57328;52.054;5.294;2023-05-02T13:17:04;7.03;;;2.15;;
69985;SDS011;57328;52.054;5.294;2023-05-02T13:19:33;6.82;;;2.10;;
69985;SDS011;57328;52.054;5.294;2023-05-02T13:22:03;7.15;;;1.60;;
69985;SDS011;57328;52.054;5.294;2023-05-02T13:24:31;5.85;;;1.73;;
69985;SDS011;57328;52.054;5.294;2023-05-02T13:26:58;5.82;;;2.40;;
69985;SDS011;57328;52.054;5.294;2023-05-02T13:29:25;7.32;;;2.17;;
69985;SDS011;57328;52.054;5.294;2023-05-02T13:31:52;7.82;;;2.10;;
69985;SDS011;57328;52.054;5.294;2023-05-02T13:34:20;5.90;;;1.70;;
69985;SDS011;57328;52.054;5.294;2023-05-02T13:36:47;5.50;;;1.92;;
69985;SDS011;57328;52.054;5.294;2023-05-02T13:39:14;6.38;;;2.13;;
69985;SDS011;57328;52.054;5.294;2023-05-02T13:41:41;8.68;;;2.28;;
69985;SDS011;57328;52.054;5.294;2023-05-02T13:44:09;3.33;;;1.40;;
69985;SDS011;57328;52.054;5.294;2023-05-02T13:46:36;5.55;;;1.63;;
69985;SDS011;57328;52.054;5.294;2023-05-02T13:49:04;3.25;;;1.33;;
69985;SDS011;57328;52.054;5.294;2023-05-02T13:51:31;5.10;;;1.92;;
69985;SDS011;57328;52.054;5.294;2023-05-02T13:53:59;4.85;;;1.33;;
69985;SDS011;57328;52.054;5.294;2023-05-02T13:56:26;7.03;;;1.52;;
69985;SDS011;57328;52.054;5.294;2023-05-02T13:58:53;6.28;;;1.88;;
69985;SDS011;57328;52.054;5.294;2023-05-02T14:01:21;4.07;;;1.50;;
69985;SDS011;57328;52.054;5.294;2023-05-02T14:03:48;5.25;;;1.75;;
69985;SDS011;57328;52.054;5.294;2023-05-02T14:06:16;4.60;;;1.52;;
69985;SDS011;57328;52.054;5.294;2023-05-02T14:08:43;8.25;;;1.80;;
69985;SDS011;57328;52.054;5.294;2023-05-02T14:11:11;5.57;;;1.50;;
69985;SDS011;57328;52.054;5.294;2023-05-02T14:13:38;6.65;;;1.65;;
69985;SDS011;57328;52.054;5.294;2023-05-02T14:16:05;7.25;;;1.60;;
69985;SDS011;57328;52.054;5.294;2023-05-02T14:18:33;4.15;;;1.63;;
69985;SDS011;57328;52.054;5.294;2023-05-02T14:21:00;5.38;;;1.60;;
69985;SDS011;57328;52.054;5.294;2023-05-02T14:23:28;7.97;;;1.60;;
69985;SDS011;57328;52.054;5.294;2023-05-02T14:25:55;3.92;;;1.50;;
69985;SDS011;57328;52.054;5.294;2023-05-02T14:28:23;5.32;;;1.90;;
69985;SDS011;57328;52.054;5.294;2023-05-02T14:30:52;7.22;;;1.63;;
69985;SDS011;57328;52.054;5.294;2023-05-02T14:33:19;7.68;;;1.70;;
69985;SDS011;57328;52.054;5.294;2023-05-02T14:35:47;4.60;;;1.52;;
69985;SDS011;57328;52.054;5.294;2023-05-02T14:38:14;5.03;;;1.50;;
69985;SDS011;57328;52.054;5.294;2023-05-02T14:40:41;4.88;;;1.45;;
69985;SDS011;57328;52.054;5.294;2023-05-02T14:43:09;3.78;;;1.20;;
69985;SDS011;57328;52.054;5.294;2023-05-02T14:45:39;5.30;;;1.23;;
69985;SDS011;57328;52.054;5.294;2023-05-02T14:48:06;5.55;;;1.23;;
69985;SDS011;57328;52.054;5.294;2023-05-02T14:50:35;5.32;;;1.25;;
69985;SDS011;57328;52.054;5.294;2023-05-02T14:53:02;5.25;;;1.65;;
69985;SDS011;57328;52.054;5.294;2023-05-02T14:55:34;7.35;;;2.22;;
69985;SDS011;57328;52.054;5.294;2023-05-02T14:58:01;4.47;;;1.27;;
69985;SDS011;57328;52.054;5.294;2023-05-02T15:00:28;4.60;;;1.40;;
69985;SDS011;57328;52.054;5.294;2023-05-02T15:02:55;3.65;;;1.30;;
69985;SDS011;57328;52.054;5.294;2023-05-02T15:05:23;5.47;;;1.38;;
69985;SDS011;57328;52.054;5.294;2023-05-02T15:07:50;3.33;;;1.65;;
69985;SDS011;57328;52.054;5.294;2023-05-02T15:10:17;6.75;;;1.55;;
69985;SDS011;57328;52.054;5.294;2023-05-02T15:12:44;3.88;;;1.38;;
69985;SDS011;57328;52.054;5.294;2023-05-02T15:15:16;5.50;;;1.55;;
69985;SDS011;57328;52.054;5.294;2023-05-02T15:17:43;6.53;;;1.63;;
69985;SDS011;57328;52.054;5.294;2023-05-02T15:20:11;4.65;;;1.30;;
69985;SDS011;57328;52.054;5.294;2023-05-02T15:22:38;3.17;;;0.93;;
69985;SDS011;57328;52.054;5.294;2023-05-02T15:25:05;3.05;;;1.45;;
69985;SDS011;57328;52.054;5.294;2023-05-02T15:27:33;6.15;;;1.63;;
69985;SDS011;57328;52.054;5.294;2023-05-02T15:30:01;6.30;;;1.65;;
69985;SDS011;57328;52.054;5.294;2023-05-02T15:32:29;5.50;;;1.17;;
69985;SDS011;57328;52.054;5.294;2023-05-02T15:34:56;4.15;;;1.40;;
69985;SDS011;57328;52.054;5.294;2023-05-02T15:37:23;7.40;;;1.63;;
69985;SDS011;57328;52.054;5.294;2023-05-02T15:39:51;2.72;;;1.10;;
69985;SDS011;57328;52.054;5.294;2023-05-02T15:42:18;5.32;;;1.50;;
69985;SDS011;57328;52.054;5.294;2023-05-02T15:44:45;5.72;;;1.45;;
69985;SDS011;57328;52.054;5.294;2023-05-02T15:47:13;3.72;;;1.30;;
69985;SDS011;57328;52.054;5.294;2023-05-02T15:49:40;3.83;;;1.20;;
69985;SDS011;57328;52.054;5.294;2023-05-02T15:52:08;3.75;;;1.20;;
69985;SDS011;57328;52.054;5.294;2023-05-02T15:54:35;2.33;;;1.20;;